Terminal Aerodrome Forecast
Issued by NWS Blacksburg, VA

Home | Current Version | Previous Version | Text Only | Print | Product List | Glossary On
Versions: 1 2 3 4 5 6 7 8 9 10 11 12 13 14 15 16 17 18 19 20 21 22 23 24 25 26 27 28 29 30 31 32 33 34 35 36 37 38 39 40 41 42 43 44 45 46 47 48 49 50
000
FTUS41 KRNK 041227 AAA
TAFLYH
TAF AMD
KLYH 041227Z 0412/0512 24004KT 3SM -RA BR OVC006 WS018/24045KT
     FM041300 22005KT 6SM -RA BR OVC009
     FM041800 22008KT 6SM -RA SCT015 OVC025
     FM050000 02006KT 2SM -RA BR OVC004
     FM050600 03007KT 4SM -RA BR OVC003=

USA.gov is the U.S. government's official web portal to all federal, state and local government web resources and services.